Time;durP1;ratioP1;P1;durP2;ratioP2;P2;SDS_P1;SDS_P2;PMS_P1;PMS_P2;Temp;Humidity;BMP_temperature;BMP_pressure;BME280_temperature;BME280_humidity;BME280_pressure;Samples;Min_cycle;Max_cycle;Signal;HPM_P1;HPM_P2
2023/05/10 00:01:40;;;;;;;7.10;6.40;;;14.00;99.90;;;;;;5032970;28;20231;-72
2023/05/10 00:04:06;;;;;;;5.90;5.27;;;13.90;99.90;;;;;;5033096;28;20520;-72
2023/05/10 00:06:32;;;;;;;6.90;5.67;;;14.00;99.90;;;;;;5032618;28;20269;-72
2023/05/10 00:08:57;;;;;;;8.13;5.87;;;14.00;99.90;;;;;;5048160;28;20209;-72
2023/05/10 00:11:23;;;;;;;10.00;5.90;;;14.00;99.90;;;;;;5032801;28;20450;-72
2023/05/10 00:13:48;;;;;;;7.83;6.47;;;14.10;99.90;;;;;;5032788;28;20174;-72
2023/05/10 00:16:14;;;;;;;8.03;6.20;;;14.10;99.90;;;;;;5032729;28;20604;-72
2023/05/10 00:18:40;;;;;;;9.57;5.63;;;14.10;99.90;;;;;;5047657;28;20814;-72
2023/05/10 00:21:06;;;;;;;8.37;6.63;;;14.10;99.90;;;;;;5032632;28;20645;-72
2023/05/10 00:23:31;;;;;;;11.10;6.70;;;14.10;99.90;;;;;;5032324;28;20884;-72
2023/05/10 00:25:57;;;;;;;8.67;6.00;;;14.10;99.90;;;;;;5032409;28;20422;-71
2023/05/10 00:28:23;;;;;;;8.10;6.33;;;14.20;99.90;;;;;;5032044;28;20203;-71
2023/05/10 00:30:48;;;;;;;6.93;5.80;;;14.20;99.90;;;;;;5032629;28;20220;-72
2023/05/10 00:33:14;;;;;;;8.63;6.73;;;14.30;99.90;;;;;;5032296;28;20517;-72
2023/05/10 00:35:40;;;;;;;9.50;6.70;;;14.20;99.90;;;;;;5032238;28;20172;-73
2023/05/10 00:38:06;;;;;;;8.50;7.00;;;14.30;99.90;;;;;;5032188;28;20218;-72
2023/05/10 00:40:32;;;;;;;9.60;5.73;;;14.30;99.90;;;;;;5032129;28;20175;-72
2023/05/10 00:42:59;;;;;;;10.33;7.10;;;14.40;99.90;;;;;;5032214;28;20410;-72
2023/05/10 00:45:24;;;;;;;7.90;6.60;;;14.40;99.90;;;;;;5032143;28;20200;-72
2023/05/10 00:47:54;;;;;;;7.67;5.67;;;14.50;99.90;;;;;;5030267;28;20548;-72
2023/05/10 00:50:20;;;;;;;7.00;5.80;;;14.60;99.90;;;;;;5032200;28;20175;-72
2023/05/10 00:52:46;;;;;;;6.77;4.77;;;14.60;99.90;;;;;;5032080;28;20907;-72
2023/05/10 00:55:12;;;;;;;10.37;6.30;;;14.60;99.90;;;;;;5047452;28;20513;-72
2023/05/10 00:57:38;;;;;;;7.67;5.70;;;14.70;99.90;;;;;;5031609;28;20249;-72
2023/05/10 01:00:04;;;;;;;7.57;6.00;;;14.70;99.90;;;;;;5032034;28;20472;-72
2023/05/10 01:02:30;;;;;;;6.47;4.63;;;14.70;99.90;;;;;;5031855;28;20775;-72
2023/05/10 01:04:55;;;;;;;5.10;4.30;;;14.70;99.90;;;;;;5032055;28;20429;-72
2023/05/10 01:07:21;;;;;;;5.83;5.23;;;14.60;99.90;;;;;;5031552;28;20214;-72
2023/05/10 01:09:47;;;;;;;7.83;5.60;;;14.60;99.90;;;;;;5031957;28;20175;-72
2023/05/10 01:12:12;;;;;;;10.10;6.50;;;14.60;99.90;;;;;;5031830;28;20317;-71
2023/05/10 01:14:38;;;;;;;9.93;6.67;;;14.50;99.90;;;;;;5031777;28;20876;-71
2023/05/10 01:17:05;;;;;;;8.73;5.43;;;14.50;99.90;;;;;;5031537;28;20195;-73
2023/05/10 01:19:34;;;;;;;7.50;5.53;;;14.40;99.90;;;;;;5031773;28;20182;-72
2023/05/10 01:22:35;;;;;;;6.43;4.63;;;14.40;99.90;;;;;;5047379;28;20938;-71
2023/05/10 01:25:12;;;;;;;10.63;6.27;;;14.40;99.90;;;;;;4996649;28;20410;-73
2023/05/10 01:27:58;;;;;;;7.10;4.87;;;14.40;99.90;;;;;;5031296;28;20457;-71
2023/05/10 01:31:01;;;;;;;6.40;4.60;;;14.40;99.90;;;;;;5031308;28;20422;-72
2023/05/10 01:34:05;;;;;;;10.27;6.40;;;14.40;99.90;;;;;;5031622;28;20404;-71
2023/05/10 01:36:42;;;;;;;6.67;5.17;;;14.40;99.90;;;;;;5019387;28;20464;-73
2023/05/10 01:39:14;;;;;;;8.50;6.00;;;14.40;99.90;;;;;;5031467;28;20501;-72
2023/05/10 01:41:49;;;;;;;9.00;6.63;;;14.40;99.90;;;;;;5031605;28;20441;-71
2023/05/10 01:44:44;;;;;;;8.30;6.03;;;14.40;99.90;;;;;;5031252;28;20429;-71
2023/05/10 01:47:33;;;;;;;9.40;6.60;;;14.30;99.90;;;;;;5031104;28;20458;-72
2023/05/10 01:50:02;;;;;;;10.17;5.93;;;14.40;99.90;;;;;;5031637;28;20398;-72
2023/05/10 01:52:35;;;;;;;6.50;4.70;;;14.50;99.90;;;;;;5031558;28;20950;-72
2023/05/10 01:55:04;;;;;;;7.60;6.23;;;14.50;99.90;;;;;;5031228;28;20497;-72
2023/05/10 01:57:35;;;;;;;4.80;4.27;;;14.50;99.90;;;;;;5031062;28;20533;-72
2023/05/10 02:00:03;;;;;;;5.40;4.03;;;14.50;99.90;;;;;;5033693;28;20402;-72
2023/05/10 02:02:33;;;;;;;5.63;3.67;;;14.50;99.90;;;;;;5035211;28;20410;-71
2023/05/10 02:04:59;;;;;;;6.90;4.13;;;14.60;99.90;;;;;;5035161;28;20406;-72
2023/05/10 02:07:27;;;;;;;5.23;4.53;;;14.60;99.90;;;;;;5034742;28;20461;-72
2023/05/10 02:09:55;;;;;;;4.13;3.30;;;14.60;99.90;;;;;;5034749;28;20410;-72
2023/05/10 02:12:22;;;;;;;6.13;3.93;;;14.60;99.90;;;;;;5034453;28;20426;-72
2023/05/10 02:14:47;;;;;;;5.17;4.17;;;14.70;99.90;;;;;;5034698;28;20418;-72
2023/05/10 02:17:14;;;;;;;6.80;4.97;;;14.70;99.90;;;;;;5034563;28;20430;-72
2023/05/10 02:19:41;;;;;;;7.03;4.20;;;14.70;99.90;;;;;;5034791;28;20167;-72
2023/05/10 02:22:08;;;;;;;3.60;3.30;;;14.70;99.90;;;;;;5034709;28;20962;-72
2023/05/10 02:24:36;;;;;;;6.97;4.80;;;14.80;99.90;;;;;;5034694;28;20421;-72
2023/05/10 02:27:03;;;;;;;6.10;4.60;;;14.80;99.90;;;;;;5034387;28;21021;-71
2023/05/10 02:29:30;;;;;;;6.73;4.50;;;14.80;99.90;;;;;;5034464;28;20417;-71
2023/05/10 02:31:57;;;;;;;5.70;4.50;;;14.80;99.90;;;;;;5034658;28;20467;-72
2023/05/10 02:34:26;;;;;;;5.80;5.10;;;14.90;99.90;;;;;;5049956;28;20410;-72
2023/05/10 02:36:53;;;;;;;5.70;4.80;;;14.90;99.90;;;;;;5034087;28;20816;-72
2023/05/10 02:39:20;;;;;;;7.60;6.30;;;14.90;99.90;;;;;;5034467;28;20449;-72
2023/05/10 02:41:48;;;;;;;8.20;5.80;;;14.90;99.90;;;;;;5034450;28;20426;-72
2023/05/10 02:44:15;;;;;;;8.20;5.57;;;14.90;99.90;;;;;;5034111;28;20413;-72
2023/05/10 02:46:41;;;;;;;9.30;5.53;;;14.80;99.90;;;;;;5033694;28;20545;-72
2023/05/10 02:49:06;;;;;;;9.40;5.60;;;14.90;99.90;;;;;;5033995;28;20982;-73
2023/05/10 02:51:37;;;;;;;7.40;5.87;;;14.80;99.90;;;;;;5034208;28;20207;-73
2023/05/10 02:54:10;;;;;;;9.07;5.40;;;14.90;99.90;;;;;;5034328;28;20168;-73
2023/05/10 02:56:39;;;;;;;7.80;5.77;;;14.80;99.90;;;;;;5034169;28;20829;-72
2023/05/10 02:59:04;;;;;;;9.17;5.97;;;14.90;99.90;;;;;;5033756;28;20403;-73
2023/05/10 03:01:30;;;;;;;9.00;5.37;;;14.80;99.90;;;;;;5034051;28;20402;-72
2023/05/10 03:03:56;;;;;;;7.17;5.03;;;14.80;99.90;;;;;;5034105;28;20171;-72
2023/05/10 03:06:21;;;;;;;6.73;4.57;;;14.80;99.90;;;;;;5033860;28;20188;-71
2023/05/10 03:08:47;;;;;;;6.13;5.07;;;14.70;99.90;;;;;;5033599;28;20676;-72
2023/05/10 03:11:31;;;;;;;8.60;5.50;;;14.70;99.90;;;;;;5033382;28;20187;-71
2023/05/10 03:14:12;;;;;;;4.93;4.20;;;14.70;99.90;;;;;;5033563;28;20190;-71
2023/05/10 03:16:56;;;;;;;8.40;5.60;;;14.70;99.90;;;;;;5033743;28;20418;-71
2023/05/10 03:19:39;;;;;;;8.43;5.73;;;14.70;99.90;;;;;;5033780;28;20837;-72
2023/05/10 03:22:08;;;;;;;9.13;5.40;;;14.70;99.90;;;;;;5049138;28;20421;-71
2023/05/10 03:24:36;;;;;;;7.17;5.30;;;14.70;99.90;;;;;;5033395;28;20414;-71
2023/05/10 03:27:04;;;;;;;6.60;4.97;;;14.70;99.90;;;;;;5033001;28;20497;-71
2023/05/10 03:29:30;;;;;;;5.10;4.53;;;14.80;99.90;;;;;;5033418;28;20407;-72
2023/05/10 03:31:59;;;;;;;5.60;4.33;;;14.80;99.90;;;;;;5033406;28;20432;-71
2023/05/10 03:34:25;;;;;;;5.87;4.50;;;14.80;99.90;;;;;;5033814;28;20414;-72
2023/05/10 03:36:50;;;;;;;6.57;4.50;;;14.80;99.90;;;;;;5033346;28;20795;-71
2023/05/10 03:39:16;;;;;;;7.57;4.70;;;14.80;99.90;;;;;;5033396;28;20410;-71
2023/05/10 03:41:42;;;;;;;9.00;6.00;;;14.80;99.90;;;;;;5033480;28;20172;-71
2023/05/10 03:44:07;;;;;;;6.47;5.10;;;14.80;99.90;;;;;;5033431;28;20521;-72
2023/05/10 03:46:33;;;;;;;9.57;5.10;;;14.80;99.90;;;;;;5033087;28;20195;-71
2023/05/10 03:48:59;;;;;;;8.80;6.90;;;14.80;99.90;;;;;;5033005;28;20202;-71
2023/05/10 03:51:27;;;;;;;10.73;6.33;;;14.80;99.90;;;;;;5048566;28;20258;-72
2023/05/10 03:53:53;;;;;;;10.67;7.30;;;14.70;99.90;;;;;;5033064;28;20911;-71
2023/05/10 03:56:20;;;;;;;12.60;8.33;;;14.60;99.90;;;;;;5032971;28;20422;-71
2023/05/10 03:58:46;;;;;;;13.07;7.40;;;14.60;99.90;;;;;;5048084;28;20424;-72
2023/05/10 04:01:11;;;;;;;12.90;8.40;;;14.50;99.90;;;;;;5031852;28;21010;-72
2023/05/10 04:03:38;;;;;;;12.83;8.27;;;14.40;99.90;;;;;;5033015;28;20171;-72
2023/05/10 04:06:03;;;;;;;15.07;7.83;;;14.30;99.90;;;;;;5032580;28;20187;-71
2023/05/10 04:08:29;;;;;;;11.40;7.20;;;14.30;99.90;;;;;;5030811;28;20461;-71
2023/05/10 04:11:04;;;;;;;12.03;7.90;;;14.30;99.90;;;;;;5032398;28;20168;-72
2023/05/10 04:13:29;;;;;;;15.20;9.40;;;14.20;99.90;;;;;;5031777;28;20540;-72
2023/05/10 04:15:55;;;;;;;13.43;8.03;;;14.20;99.90;;;;;;5032117;28;20417;-71
2023/05/10 04:18:21;;;;;;;16.87;9.20;;;14.20;99.90;;;;;;5032350;28;20202;-71
2023/05/10 04:20:47;;;;;;;22.03;14.20;;;14.20;99.90;;;;;;5032463;28;20493;-71
2023/05/10 04:23:13;;;;;;;15.17;9.60;;;14.20;99.90;;;;;;5032045;28;20574;-71
2023/05/10 04:25:39;;;;;;;12.43;9.47;;;14.20;99.90;;;;;;5047748;28;20784;-71
2023/05/10 04:28:05;;;;;;;13.80;8.20;;;14.20;99.90;;;;;;5031962;28;20454;-71
2023/05/10 04:30:30;;;;;;;13.50;9.27;;;14.20;99.90;;;;;;5032499;28;20171;-71
2023/05/10 04:32:56;;;;;;;15.10;9.63;;;14.20;99.90;;;;;;5032408;28;20172;-70
2023/05/10 04:35:21;;;;;;;12.60;9.00;;;14.20;99.90;;;;;;5032135;28;20534;-72
2023/05/10 04:37:47;;;;;;;10.83;7.60;;;14.20;99.90;;;;;;5031902;28;20195;-71
2023/05/10 04:40:12;;;;;;;12.03;8.60;;;14.20;99.90;;;;;;5032242;28;20175;-71
2023/05/10 04:42:41;;;;;;;12.07;8.03;;;14.30;99.90;;;;;;5032268;28;20167;-70
2023/05/10 04:45:07;;;;;;;13.07;7.43;;;14.30;99.90;;;;;;5032172;28;20174;-71
2023/05/10 04:47:32;;;;;;;10.00;7.30;;;14.30;99.90;;;;;;5031659;28;20458;-71
2023/05/10 04:49:58;;;;;;;8.33;6.93;;;14.30;99.90;;;;;;5032122;28;20398;-71
2023/05/10 04:52:24;;;;;;;15.70;8.13;;;14.40;99.90;;;;;;5047456;28;20667;-71
2023/05/10 04:54:50;;;;;;;13.40;8.33;;;14.50;99.90;;;;;;5031803;28;20407;-71
2023/05/10 04:57:16;;;;;;;9.97;6.90;;;14.60;99.90;;;;;;5031569;28;20275;-71
2023/05/10 04:59:42;;;;;;;11.93;6.23;;;14.60;99.90;;;;;;5031933;28;20485;-71
2023/05/10 05:02:07;;;;;;;11.60;6.80;;;14.70;99.90;;;;;;5032019;28;20704;-71
2023/05/10 05:04:33;;;;;;;11.30;7.23;;;14.70;99.90;;;;;;5032444;28;20501;-71
2023/05/10 05:06:59;;;;;;;10.90;8.43;;;14.70;99.90;;;;;;5031323;28;20205;-70
2023/05/10 05:09:24;;;;;;;12.07;8.63;;;14.70;99.90;;;;;;5031721;28;20167;-70
2023/05/10 05:11:50;;;;;;;12.00;7.83;;;14.80;99.90;;;;;;5031649;28;20679;-70
2023/05/10 05:14:15;;;;;;;13.23;7.43;;;14.80;99.90;;;;;;5031961;28;20167;-71
2023/05/10 05:16:41;;;;;;;13.37;6.57;;;14.80;99.90;;;;;;5031673;28;20187;-71
2023/05/10 05:19:06;;;;;;;10.10;6.63;;;14.90;99.90;;;;;;5031024;28;20191;-71
2023/05/10 05:21:32;;;;;;;15.03;7.73;;;14.90;99.90;;;;;;5031584;28;20225;-72
2023/05/10 05:23:58;;;;;;;12.13;6.40;;;14.80;99.90;;;;;;5031806;28;20218;-71
2023/05/10 05:26:23;;;;;;;8.55;5.50;;;14.80;99.90;;;;;;5031615;28;20218;-71
2023/05/10 05:28:52;;;;;;;9.13;7.47;;;14.80;99.90;;;;;;5031506;28;20178;-71
2023/05/10 05:31:17;;;;;;;11.50;6.33;;;14.90;99.90;;;;;;5031818;28;20246;-71
2023/05/10 05:33:43;;;;;;;17.33;6.80;;;14.90;99.90;;;;;;5032047;28;20950;-71
2023/05/10 05:36:09;;;;;;;10.23;6.50;;;14.80;99.90;;;;;;5035703;28;20504;-72
2023/05/10 05:38:34;;;;;;;11.43;6.53;;;14.80;99.90;;;;;;5035384;28;20217;-71
2023/05/10 05:41:00;;;;;;;9.80;5.70;;;14.90;99.90;;;;;;5035620;28;20172;-71
2023/05/10 05:43:25;;;;;;;9.00;6.33;;;15.00;99.90;;;;;;5035557;28;20699;-71
2023/05/10 05:45:54;;;;;;;8.67;5.97;;;15.00;99.90;;;;;;5050517;28;20262;-71
2023/05/10 05:48:20;;;;;;;11.33;6.03;;;15.10;99.90;;;;;;5035019;28;20205;-71
2023/05/10 05:50:46;;;;;;;9.33;6.13;;;15.00;99.90;;;;;;5035350;28;20394;-71
2023/05/10 05:53:11;;;;;;;17.63;7.07;;;15.10;99.90;;;;;;5050364;28;20421;-71
2023/05/10 05:55:37;;;;;;;8.10;5.93;;;15.20;99.90;;;;;;5035179;28;20246;-69
2023/05/10 05:58:03;;;;;;;8.60;4.87;;;15.40;99.90;;;;;;5034937;28;20191;-69
2023/05/10 06:00:28;;;;;;;11.30;6.70;;;15.50;99.90;;;;;;5035269;28;20170;-69
2023/05/10 06:02:54;;;;;;;8.53;5.33;;;15.70;99.90;;;;;;5035221;28;20183;-68
2023/05/10 06:05:20;;;;;;;8.50;5.57;;;15.70;99.90;;;;;;5035045;28;20675;-69
2023/05/10 06:07:46;;;;;;;9.60;6.63;;;15.70;99.90;;;;;;5034661;28;20196;-68
2023/05/10 06:10:11;;;;;;;10.70;6.10;;;15.80;99.90;;;;;;5035067;28;20405;-69
2023/05/10 06:12:37;;;;;;;9.30;6.80;;;15.90;99.90;;;;;;5034806;28;20179;-69
2023/05/10 06:15:03;;;;;;;10.10;6.27;;;15.80;99.90;;;;;;5034923;28;20241;-69
2023/05/10 06:17:29;;;;;;;7.73;5.97;;;15.60;99.90;;;;;;5034484;28;20187;-68
2023/05/10 06:19:55;;;;;;;8.87;6.80;;;15.60;99.90;;;;;;5034864;28;20425;-69
2023/05/10 06:22:22;;;;;;;7.63;6.50;;;15.60;99.90;;;;;;5034754;28;20652;-68
2023/05/10 06:24:48;;;;;;;10.60;6.30;;;15.60;99.90;;;;;;5034825;28;20412;-68
2023/05/10 06:27:13;;;;;;;8.03;5.97;;;15.70;99.90;;;;;;5034089;28;20458;-68
2023/05/10 06:29:39;;;;;;;11.47;6.53;;;15.60;99.90;;;;;;5034781;28;20222;-69
2023/05/10 06:32:04;;;;;;;11.60;6.60;;;15.60;99.90;;;;;;5034651;28;20171;-69
2023/05/10 06:34:30;;;;;;;9.40;6.30;;;15.70;99.90;;;;;;5034680;28;20245;-69
2023/05/10 06:36:55;;;;;;;11.73;6.57;;;15.70;99.90;;;;;;5034256;28;20191;-68
2023/05/10 06:39:21;;;;;;;13.43;8.17;;;15.70;99.90;;;;;;5034506;28;20197;-69
2023/05/10 06:41:46;;;;;;;12.77;7.20;;;15.60;99.90;;;;;;5034525;28;20174;-69
2023/05/10 06:44:12;;;;;;;10.57;7.57;;;15.50;99.90;;;;;;5034445;28;20648;-69
2023/05/10 06:46:38;;;;;;;8.83;6.37;;;15.40;99.90;;;;;;5033817;28;20194;-69
2023/05/10 06:49:04;;;;;;;11.63;7.20;;;15.30;99.90;;;;;;5049404;28;20421;-69
2023/05/10 06:51:29;;;;;;;8.07;5.90;;;15.20;99.90;;;;;;5034269;28;20541;-68
2023/05/10 06:53:55;;;;;;;9.07;6.13;;;15.30;99.90;;;;;;5034221;28;20402;-68
2023/05/10 06:56:21;;;;;;;9.40;5.63;;;15.30;99.90;;;;;;5033581;28;20188;-69
2023/05/10 06:58:47;;;;;;;12.33;8.10;;;15.30;99.90;;;;;;5033886;28;20217;-69
2023/05/10 07:01:13;;;;;;;11.60;6.63;;;15.30;99.90;;;;;;5034095;28;20489;-69
2023/05/10 07:03:38;;;;;;;8.30;5.90;;;15.40;99.90;;;;;;5033908;28;20489;-69
2023/05/10 07:06:04;;;;;;;11.37;6.37;;;15.40;99.90;;;;;;5033889;28;20190;-69
2023/05/10 07:08:34;;;;;;;9.00;6.80;;;15.50;99.90;;;;;;5033632;28;20199;-69
2023/05/10 07:11:03;;;;;;;9.83;6.77;;;15.60;99.90;;;;;;5033589;28;20525;-69
2023/05/10 07:13:33;;;;;;;9.23;5.40;;;15.60;99.90;;;;;;5006723;28;20779;-69
2023/05/10 07:16:00;;;;;;;9.13;6.27;;;15.70;99.90;;;;;;5004261;28;20424;-69
2023/05/10 07:18:25;;;;;;;8.23;6.10;;;15.70;99.90;;;;;;5002611;28;20408;-68
2023/05/10 07:20:51;;;;;;;9.70;6.37;;;15.70;99.90;;;;;;5014003;28;20430;-69
2023/05/10 07:23:20;;;;;;;9.23;7.13;;;15.70;99.90;;;;;;5013219;28;20337;-69
2023/05/10 07:25:51;;;;;;;6.97;5.50;;;15.70;99.90;;;;;;5013991;28;20251;-69
2023/05/10 07:28:17;;;;;;;6.33;5.40;;;15.80;99.90;;;;;;5013558;28;20454;-69
2023/05/10 07:30:43;;;;;;;7.00;5.90;;;15.90;99.90;;;;;;5013839;28;21101;-69
2023/05/10 07:33:11;;;;;;;6.30;4.80;;;15.90;99.90;;;;;;5013780;28;20450;-68
2023/05/10 07:35:37;;;;;;;8.73;6.53;;;15.90;99.90;;;;;;5013615;28;20403;-69
2023/05/10 07:38:02;;;;;;;8.40;6.40;;;16.00;99.90;;;;;;5013530;28;20888;-69
2023/05/10 07:40:28;;;;;;;9.90;5.57;;;16.00;99.90;;;;;;5013596;28;20473;-68
2023/05/10 07:42:54;;;;;;;7.60;6.00;;;16.10;99.90;;;;;;5013579;28;20246;-69
2023/05/10 07:45:20;;;;;;;5.07;4.50;;;16.20;99.90;;;;;;5013505;28;20392;-69
2023/05/10 07:47:45;;;;;;;5.20;4.70;;;16.30;99.90;;;;;;5013090;28;20208;-69
2023/05/10 07:50:11;;;;;;;5.47;4.57;;;16.40;99.90;;;;;;5013467;28;20169;-69
2023/05/10 07:52:36;;;;;;;6.77;4.10;;;16.50;99.90;;;;;;5005772;28;20528;-69
2023/05/10 07:55:02;;;;;;;5.67;4.17;;;16.70;99.90;;;;;;5003811;28;20681;-69
2023/05/10 07:57:27;;;;;;;8.17;4.53;;;16.80;99.90;;;;;;5002010;28;20200;-69
2023/05/10 07:59:53;;;;;;;7.63;4.27;;;16.90;99.90;;;;;;4996623;28;20558;-69
2023/05/10 08:02:18;;;;;;;6.10;4.70;;;17.00;99.90;;;;;;4993118;28;20542;-69
2023/05/10 08:04:44;;;;;;;5.80;3.70;;;17.00;99.90;;;;;;4993392;28;20177;-69
2023/05/10 08:07:10;;;;;;;6.17;4.40;;;17.10;99.90;;;;;;4993144;28;20200;-69
2023/05/10 08:09:36;;;;;;;5.30;3.77;;;17.20;99.90;;;;;;4992146;28;20173;-69
2023/05/10 08:12:01;;;;;;;6.47;4.27;;;17.40;99.90;;;;;;4993170;28;20434;-69
2023/05/10 08:14:29;;;;;;;6.10;4.40;;;17.60;99.90;;;;;;4992090;28;20187;-69
2023/05/10 08:16:55;;;;;;;8.63;4.50;;;17.70;99.90;;;;;;4993014;28;20192;-69
2023/05/10 08:19:21;;;;;;;7.97;4.40;;;18.00;99.90;;;;;;4993296;28;20411;-69
2023/05/10 08:21:47;;;;;;;12.20;5.73;;;18.20;99.90;;;;;;4993316;28;20463;-69
2023/05/10 08:24:13;;;;;;;6.97;4.77;;;18.30;99.90;;;;;;4993263;28;20408;-69
2023/05/10 08:26:38;;;;;;;8.33;6.20;;;18.40;99.90;;;;;;4992988;28;21048;-69
2023/05/10 08:29:04;;;;;;;5.43;4.20;;;18.50;99.90;;;;;;4992819;28;20176;-69
2023/05/10 08:31:29;;;;;;;10.67;4.33;;;18.50;99.90;;;;;;4993127;28;20244;-69
2023/05/10 08:33:55;;;;;;;8.40;4.63;;;18.60;99.90;;;;;;4993106;28;20208;-69
2023/05/10 08:36:23;;;;;;;5.87;5.30;;;18.70;99.90;;;;;;4992956;28;20212;-69
2023/05/10 08:38:53;;;;;;;5.20;4.37;;;18.80;99.90;;;;;;4992735;28;20173;-69
2023/05/10 08:41:21;;;;;;;6.03;5.10;;;19.10;99.90;;;;;;4992866;28;20423;-69
2023/05/10 08:43:47;;;;;;;7.73;4.50;;;19.30;99.90;;;;;;4992924;28;20408;-69
2023/05/10 08:46:17;;;;;;;8.50;5.30;;;19.60;99.90;;;;;;4991595;28;20523;-69
2023/05/10 08:48:47;;;;;;;5.77;4.80;;;19.80;99.90;;;;;;4992412;28;20458;-69
2023/05/10 08:51:15;;;;;;;8.50;5.43;;;20.10;99.90;;;;;;4992807;28;20400;-69
2023/05/10 08:53:40;;;;;;;5.30;4.43;;;20.30;99.90;;;;;;4992731;28;20408;-69
2023/05/10 08:56:06;;;;;;;6.83;4.33;;;20.40;99.90;;;;;;4992689;28;20441;-69
2023/05/10 08:58:32;;;;;;;6.87;5.27;;;20.50;99.90;;;;;;4992457;28;20662;-69
2023/05/10 09:01:00;;;;;;;5.30;4.33;;;20.50;99.90;;;;;;5000814;28;20521;-69
2023/05/10 09:03:26;;;;;;;4.93;3.80;;;20.80;99.90;;;;;;5010502;28;20423;-69
2023/05/10 09:05:52;;;;;;;6.97;4.67;;;21.40;99.90;;;;;;5014084;28;20432;-69
2023/05/10 09:08:18;;;;;;;4.57;3.90;;;22.10;99.90;;;;;;5015299;28;20568;-70
2023/05/10 09:10:44;;;;;;;5.93;4.60;;;22.60;99.90;;;;;;5029184;28;20183;-70
2023/05/10 09:13:11;;;;;;;9.30;5.00;;;22.50;99.90;;;;;;5031750;28;20849;-69
2023/05/10 09:15:37;;;;;;;7.93;5.83;;;22.10;99.90;;;;;;5020614;28;20432;-69
2023/05/10 09:18:03;;;;;;;10.07;6.50;;;21.70;99.90;;;;;;5011903;28;20407;-69
2023/05/10 09:20:28;;;;;;;8.40;5.87;;;21.30;99.90;;;;;;5012058;28;20167;-69
2023/05/10 09:22:54;;;;;;;7.83;5.37;;;21.00;99.90;;;;;;5009518;28;20184;-69
2023/05/10 09:25:19;;;;;;;7.20;5.10;;;20.80;99.90;;;;;;5016751;28;20534;-69
2023/05/10 09:27:47;;;;;;;8.43;6.00;;;20.70;99.90;;;;;;5011849;28;20313;-69
2023/05/10 09:30:27;;;;;;;9.87;7.03;;;20.70;99.90;;;;;;5016174;28;20183;-69
2023/05/10 09:32:53;;;;;;;7.03;6.33;;;20.80;99.90;;;;;;5019257;28;20983;-69
2023/05/10 09:35:21;;;;;;;7.57;6.17;;;20.90;99.90;;;;;;5015711;28;20431;-69
2023/05/10 09:37:49;;;;;;;13.00;6.80;;;20.90;99.90;;;;;;5029957;28;20426;-69
2023/05/10 09:40:17;;;;;;;9.97;5.83;;;20.80;99.90;;;;;;5022014;28;20971;-69
2023/05/10 09:42:51;;;;;;;10.03;6.93;;;20.80;99.90;;;;;;5021838;28;20554;-69
2023/05/10 09:45:17;;;;;;;7.90;5.37;;;21.00;99.90;;;;;;5031715;28;20442;-69
2023/05/10 09:47:42;;;;;;;10.23;6.80;;;21.20;99.90;;;;;;5031126;28;21050;-69
2023/05/10 09:50:09;;;;;;;8.27;6.93;;;21.60;99.90;;;;;;5022989;28;20429;-69
2023/05/10 09:52:51;;;;;;;11.43;6.60;;;22.30;99.90;;;;;;5016337;28;20252;-69
2023/05/10 09:55:19;;;;;;;5.73;4.77;;;23.40;99.90;;;;;;5001086;28;20422;-70
2023/05/10 09:57:46;;;;;;;8.80;4.80;;;24.40;99.90;;;;;;5008767;28;20423;-69
2023/05/10 10:00:18;;;;;;;7.20;4.97;;;24.90;99.90;;;;;;5002466;28;20432;-69
2023/05/10 10:02:53;;;;;;;4.93;4.00;;;25.30;99.90;;;;;;5020297;28;20410;-69
2023/05/10 10:05:19;;;;;;;8.20;5.20;;;25.90;99.90;;;;;;5014546;28;20444;-69
2023/05/10 10:07:45;;;;;;;6.50;5.77;;;26.80;99.90;;;;;;5020226;28;20454;-70
2023/05/10 10:10:12;;;;;;;7.23;5.07;;;27.30;99.90;;;;;;5019914;28;20181;-69
2023/05/10 10:12:39;;;;;;;6.37;5.30;;;27.60;97.80;;;;;;5019418;28;20208;-69
2023/05/10 10:15:07;;;;;;;4.17;3.77;;;27.60;95.00;;;;;;5011644;28;20399;-70
2023/05/10 10:17:34;;;;;;;6.20;4.60;;;27.60;94.50;;;;;;5015893;28;20450;-70
2023/05/10 10:20:00;;;;;;;6.33;4.53;;;27.70;94.00;;;;;;5023377;28;20402;-69
2023/05/10 10:22:25;;;;;;;6.70;4.70;;;27.70;92.80;;;;;;5020178;28;20418;-70
2023/05/10 10:24:51;;;;;;;6.00;4.43;;;27.40;92.10;;;;;;5049439;28;20217;-70
2023/05/10 10:27:36;;;;;;;6.47;4.83;;;27.10;92.60;;;;;;5026963;28;20245;-70
2023/05/10 10:30:20;;;;;;;5.00;4.47;;;27.10;92.80;;;;;;5007606;28;20513;-70
2023/05/10 10:33:23;;;;;;;9.30;4.80;;;28.00;93.40;;;;;;5015974;28;20407;-70
2023/05/10 10:35:49;;;;;;;7.90;5.13;;;28.50;91.00;;;;;;5016215;28;20507;-70
2023/05/10 10:38:15;;;;;;;7.20;4.67;;;28.20;85.50;;;;;;5028762;28;20406;-69
2023/05/10 10:40:40;;;;;;;6.80;5.40;;;27.40;81.60;;;;;;5023334;28;20430;-69
2023/05/10 10:43:26;;;;;;;6.47;4.73;;;26.00;79.50;;;;;;5027174;28;20550;-69
2023/05/10 10:46:17;;;;;;;7.07;4.27;;;24.60;85.00;;;;;;5016288;28;20301;-69
2023/05/10 10:48:51;;;;;;;7.27;6.50;;;23.70;91.40;;;;;;5025862;28;20944;-69
2023/05/10 10:51:17;;;;;;;7.27;4.80;;;22.80;95.90;;;;;;5034357;28;20432;-69
2023/05/10 10:53:43;;;;;;;4.67;3.43;;;22.00;99.90;;;;;;5011352;28;20463;-69
2023/05/10 10:56:14;;;;;;;7.63;4.07;;;21.70;99.90;;;;;;5009987;28;20982;-69
2023/05/10 10:58:41;;;;;;;5.57;3.60;;;21.80;99.90;;;;;;5010570;28;20518;-69
2023/05/10 11:01:15;;;;;;;5.40;3.60;;;22.10;99.90;;;;;;5015773;28;20430;-69
2023/05/10 11:03:41;;;;;;;4.13;3.63;;;22.60;99.90;;;;;;5021940;28;20422;-69
2023/05/10 11:06:08;;;;;;;4.37;3.33;;;23.00;99.90;;;;;;5034043;28;20485;-69
2023/05/10 11:08:42;;;;;;;3.90;3.50;;;23.10;99.90;;;;;;5033601;28;20450;-69
2023/05/10 11:11:07;;;;;;;3.40;3.10;;;23.20;99.90;;;;;;5021037;28;20474;-69
2023/05/10 11:13:42;;;;;;;5.20;3.30;;;23.10;99.90;;;;;;5019366;28;20486;-69
2023/05/10 11:16:14;;;;;;;3.50;2.60;;;22.90;99.90;;;;;;5003764;28;20192;-69
2023/05/10 11:18:40;;;;;;;2.80;2.60;;;22.60;99.90;;;;;;5035383;28;20526;-69
2023/05/10 11:21:11;;;;;;;3.43;2.57;;;22.40;99.90;;;;;;5018014;28;20902;-69
2023/05/10 11:23:40;;;;;;;3.40;3.10;;;22.20;99.90;;;;;;5014015;28;20475;-69
2023/05/10 11:26:09;;;;;;;2.80;2.60;;;22.10;99.90;;;;;;5025294;28;20517;-69
2023/05/10 11:28:42;;;;;;;2.80;2.37;;;22.20;99.90;;;;;;5015219;28;20455;-70
2023/05/10 11:31:07;;;;;;;2.53;2.33;;;22.30;99.90;;;;;;5015682;28;20963;-69
2023/05/10 11:33:46;;;;;;;2.60;2.40;;;22.60;99.90;;;;;;5030033;28;20410;-70
2023/05/10 11:36:17;;;;;;;1.80;1.70;;;22.90;99.90;;;;;;5024875;28;20191;-70
2023/05/10 11:38:42;;;;;;;2.70;2.10;;;23.40;99.90;;;;;;5001497;28;20977;-69
2023/05/10 11:41:10;;;;;;;2.60;2.40;;;24.20;99.90;;;;;;5021727;28;20505;-70
2023/05/10 11:43:38;;;;;;;2.20;2.00;;;25.80;99.90;;;;;;5013609;28;20172;-70
2023/05/10 11:46:05;;;;;;;2.10;1.90;;;29.20;99.90;;;;;;5010126;28;20454;-70
2023/05/10 11:48:30;;;;;;;1.87;1.77;;;31.70;87.90;;;;;;5021255;28;20968;-70
2023/05/10 11:50:57;;;;;;;2.67;2.13;;;32.80;69.50;;;;;;5027276;28;20429;-70
2023/05/10 11:53:25;;;;;;;2.07;1.90;;;33.10;61.20;;;;;;5040259;28;20255;-70
2023/05/10 11:55:51;;;;;;;2.50;2.20;;;32.90;57.40;;;;;;5023074;28;20846;-70
2023/05/10 11:58:18;;;;;;;2.20;2.00;;;32.30;55.60;;;;;;5039837;28;20441;-71
2023/05/10 12:00:44;;;;;;;2.23;2.03;;;31.80;56.00;;;;;;5033100;28;20176;-71
2023/05/10 12:03:10;;;;;;;2.50;2.10;;;31.30;54.30;;;;;;5033034;28;20413;-70
2023/05/10 12:05:36;;;;;;;2.50;2.30;;;30.50;53.90;;;;;;5032911;28;20250;-70
2023/05/10 12:08:15;;;;;;;2.47;2.27;;;28.80;53.30;;;;;;5032518;28;20552;-70
2023/05/10 12:10:41;;;;;;;1.70;1.60;;;28.00;56.40;;;;;;5032856;28;20485;-71
2023/05/10 12:13:13;;;;;;;1.87;1.77;;;27.30;58.30;;;;;;5032933;28;20428;-69
2023/05/10 12:15:38;;;;;;;2.10;1.90;;;26.60;59.20;;;;;;5048106;28;20410;-70
2023/05/10 12:18:05;;;;;;;2.40;2.20;;;26.50;63.60;;;;;;5032376;28;20808;-71
2023/05/10 12:20:31;;;;;;;2.80;2.20;;;26.60;66.80;;;;;;5032658;28;20628;-71
2023/05/10 12:22:58;;;;;;;2.40;2.20;;;26.60;67.20;;;;;;5032365;28;20402;-70
2023/05/10 12:25:29;;;;;;;2.17;1.87;;;26.50;66.20;;;;;;5032449;28;20163;-70
2023/05/10 12:28:02;;;;;;;2.40;2.20;;;26.40;67.20;;;;;;5031911;28;20454;-70
2023/05/10 12:30:31;;;;;;;2.90;2.33;;;26.30;67.60;;;;;;5032480;28;20402;-70
2023/05/10 12:33:01;;;;;;;3.20;2.90;;;26.00;65.10;;;;;;5032458;28;20406;-70
2023/05/10 12:35:30;;;;;;;2.40;2.20;;;26.10;68.50;;;;;;5032374;28;20468;-69
2023/05/10 12:37:55;;;;;;;2.27;2.07;;;25.80;66.60;;;;;;5032059;28;20510;-70
2023/05/10 12:40:21;;;;;;;3.43;3.00;;;25.70;68.10;;;;;;5032392;28;20497;-71
2023/05/10 12:42:47;;;;;;;2.00;1.90;;;25.70;69.10;;;;;;5031936;28;20191;-71
2023/05/10 12:45:12;;;;;;;2.30;2.00;;;25.40;69.50;;;;;;5032204;28;20244;-70
2023/05/10 12:47:38;;;;;;;2.73;1.80;;;25.50;71.40;;;;;;5031861;28;20265;-70
2023/05/10 12:50:05;;;;;;;1.40;1.30;;;25.80;72.30;;;;;;5032216;28;20537;-71